sensor_id;sensor_type;location;lat;lon;timestamp;pressure;altitude;pressure_sealevel;temperature;humidity
53916;BME280;39827;49.652;18.770;2023-05-22T08:28:47;72130.47;;;-149.71;35.19
53916;BME280;39827;49.652;18.770;2023-05-22T08:31:13;72132.50;;;-149.71;33.38
53916;BME280;39827;49.652;18.770;2023-05-22T08:33:39;72110.41;;;-149.71;34.15
53916;BME280;39827;49.652;18.770;2023-05-22T08:36:05;72084.28;;;-149.71;34.22
53916;BME280;39827;49.652;18.770;2023-05-22T08:38:30;72090.31;;;-149.71;33.97
53916;BME280;39827;49.652;18.770;2023-05-22T08:40:56;72084.28;;;-149.71;34.80
53916;BME280;39827;49.652;18.770;2023-05-22T08:43:22;72076.25;;;-149.71;34.56
53916;BME280;39827;49.652;18.770;2023-05-22T08:45:54;72054.19;;;-149.71;33.48
53916;BME280;39827;49.652;18.770;2023-05-22T08:48:22;72014.00;;;-149.71;33.61
53916;BME280;39827;49.652;18.770;2023-05-22T08:50:52;71977.88;;;-149.71;33.62
53916;BME280;39827;49.652;18.770;2023-05-22T08:53:22;72001.97;;;-149.71;34.67
53916;BME280;39827;49.652;18.770;2023-05-22T08:55:52;72040.13;;;-149.71;34.37
53916;BME280;39827;49.652;18.770;2023-05-22T08:58:17;72001.97;;;-149.71;35.07
53916;BME280;39827;49.652;18.770;2023-05-22T09:00:43;72022.03;;;-149.71;34.55
53916;BME280;39827;49.652;18.770;2023-05-22T09:03:09;72036.09;;;-149.71;33.84
53916;BME280;39827;49.652;18.770;2023-05-22T09:05:40;72040.13;;;-149.71;34.70
53916;BME280;39827;49.652;18.770;2023-05-22T09:08:06;72052.16;;;-149.71;35.58
53916;BME280;39827;49.652;18.770;2023-05-22T09:10:33;72050.16;;;-149.71;34.66
53916;BME280;39827;49.652;18.770;2023-05-22T09:12:59;72054.19;;;-149.71;34.09
53916;BME280;39827;49.652;18.770;2023-05-22T09:15:28;72012.00;;;-149.71;34.56
53916;BME280;39827;49.652;18.770;2023-05-22T09:17:54;72014.00;;;-149.71;34.08
53916;BME280;39827;49.652;18.770;2023-05-22T09:20:20;71981.88;;;-149.71;35.54
53916;BME280;39827;49.652;18.770;2023-05-22T09:22:45;71955.78;;;-149.71;34.10
53916;BME280;39827;49.652;18.770;2023-05-22T09:25:16;71921.66;;;-149.71;33.64
53916;BME280;39827;49.652;18.770;2023-05-22T09:27:46;71873.47;;;-149.71;32.19
53916;BME280;39827;49.652;18.770;2023-05-22T09:30:16;71921.66;;;-149.71;33.33
53916;BME280;39827;49.652;18.770;2023-05-22T09:32:42;71943.75;;;-149.71;31.28
53916;BME280;39827;49.652;18.770;2023-05-22T09:35:08;71883.50;;;-149.71;32.16
53916;BME280;39827;49.652;18.770;2023-05-22T09:37:34;71883.50;;;-149.71;34.57
53916;BME280;39827;49.652;18.770;2023-05-22T09:40:06;71835.31;;;-149.71;33.08
53916;BME280;39827;49.652;18.770;2023-05-22T09:42:33;71829.28;;;-149.71;31.87
53916;BME280;39827;49.652;18.770;2023-05-22T09:45:06;71813.22;;;-149.71;31.49
53916;BME280;39827;49.652;18.770;2023-05-22T09:47:32;71793.13;;;-149.71;31.62
53916;BME280;39827;49.652;18.770;2023-05-22T09:49:59;71799.16;;;-149.71;31.39
53916;BME280;39827;49.652;18.770;2023-05-22T09:52:32;71805.19;;;-149.71;30.13
53916;BME280;39827;49.652;18.770;2023-05-22T09:55:03;71813.22;;;-149.71;30.73
53916;BME280;39827;49.652;18.770;2023-05-22T09:57:31;71819.25;;;-149.71;31.58
53916;BME280;39827;49.652;18.770;2023-05-22T09:59:58;71839.31;;;-149.71;29.31
53916;BME280;39827;49.652;18.770;2023-05-22T10:02:25;71793.13;;;-149.71;31.45
53916;BME280;39827;49.652;18.770;2023-05-22T10:04:51;71777.06;;;-149.71;30.25
53916;BME280;39827;49.652;18.770;2023-05-22T10:07:29;71767.03;;;-149.71;30.76
53916;BME280;39827;49.652;18.770;2023-05-22T10:10:02;71708.81;;;-149.71;29.50
53916;BME280;39827;49.652;18.770;2023-05-22T10:12:31;71712.81;;;-149.71;28.56
53916;BME280;39827;49.652;18.770;2023-05-22T10:14:57;71748.97;;;-149.71;30.88
53916;BME280;39827;49.652;18.770;2023-05-22T10:17:24;71714.84;;;-149.71;30.39
53916;BME280;39827;49.652;18.770;2023-05-22T10:19:52;71686.72;;;-149.71;29.87
53916;BME280;39827;49.652;18.770;2023-05-22T10:22:19;71688.72;;;-149.71;29.71
53916;BME280;39827;49.652;18.770;2023-05-22T10:24:47;71748.97;;;-149.71;30.85
53916;BME280;39827;49.652;18.770;2023-05-22T10:27:13;71708.81;;;-149.71;30.29
53916;BME280;39827;49.652;18.770;2023-05-22T10:29:46;71674.69;;;-149.71;30.57
53916;BME280;39827;49.652;18.770;2023-05-22T10:32:24;71632.50;;;-149.71;30.32
53916;BME280;39827;49.652;18.770;2023-05-22T10:35:20;71614.44;;;-149.71;29.72
53916;BME280;39827;49.652;18.770;2023-05-22T10:37:51;71658.63;;;-149.71;29.17
53916;BME280;39827;49.652;18.770;2023-05-22T10:40:22;71638.53;;;-149.71;29.42
53916;BME280;39827;49.652;18.770;2023-05-22T10:42:57;71644.56;;;-149.71;29.04
53916;BME280;39827;49.652;18.770;2023-05-22T10:45:25;71632.50;;;-149.71;29.43
53916;BME280;39827;49.652;18.770;2023-05-22T10:48:04;71582.31;;;-149.71;28.50
53916;BME280;39827;49.652;18.770;2023-05-22T10:50:30;71584.31;;;-149.71;30.40
53916;BME280;39827;49.652;18.770;2023-05-22T10:55:50;71642.56;;;-149.71;28.53
53916;BME280;39827;49.652;18.770;2023-05-22T10:58:16;71680.69;;;-149.71;30.34
53916;BME280;39827;49.652;18.770;2023-05-22T11:00:43;71752.97;;;-149.71;31.74
53916;BME280;39827;49.652;18.770;2023-05-22T11:03:09;71686.72;;;-149.71;30.74
53916;BME280;39827;49.652;18.770;2023-05-22T11:05:36;71702.78;;;-149.71;30.34
53916;BME280;39827;49.652;18.770;2023-05-22T11:08:09;71664.63;;;-149.71;30.00
53916;BME280;39827;49.652;18.770;2023-05-22T11:10:54;71686.72;;;-149.71;31.17
53916;BME280;39827;49.652;18.770;2023-05-22T11:13:20;71666.66;;;-149.71;32.02
53916;BME280;39827;49.652;18.770;2023-05-22T11:15:49;71688.72;;;-149.71;29.68
53916;BME280;39827;49.652;18.770;2023-05-22T11:18:15;71666.66;;;-149.71;29.98
53916;BME280;39827;49.652;18.770;2023-05-22T11:20:41;71652.59;;;-149.71;29.94
53916;BME280;39827;49.652;18.770;2023-05-22T11:23:09;71672.66;;;-149.71;30.84
53916;BME280;39827;49.652;18.770;2023-05-22T11:25:39;71660.63;;;-149.71;30.25
53916;BME280;39827;49.652;18.770;2023-05-22T11:28:05;71688.72;;;-149.71;29.52
53916;BME280;39827;49.652;18.770;2023-05-22T11:30:32;71700.78;;;-149.71;29.98
53916;BME280;39827;49.652;18.770;2023-05-22T11:32:59;71662.63;;;-149.71;30.17
53916;BME280;39827;49.652;18.770;2023-05-22T11:35:25;71688.72;;;-149.71;29.05
53916;BME280;39827;49.652;18.770;2023-05-22T11:37:52;71676.69;;;-149.71;29.42
53916;BME280;39827;49.652;18.770;2023-05-22T11:40:22;71692.75;;;-149.71;30.27
53916;BME280;39827;49.652;18.770;2023-05-22T11:42:54;71666.66;;;-149.71;29.46
53916;BME280;39827;49.652;18.770;2023-05-22T11:45:20;71692.75;;;-149.71;30.64
53916;BME280;39827;49.652;18.770;2023-05-22T11:47:45;71773.06;;;-149.71;28.59
53916;BME280;39827;49.652;18.770;2023-05-22T11:50:12;71748.97;;;-149.71;29.26
53916;BME280;39827;49.652;18.770;2023-05-22T11:52:40;71742.94;;;-149.71;30.97
53916;BME280;39827;49.652;18.770;2023-05-22T11:55:06;71761.00;;;-149.71;30.48
53916;BME280;39827;49.652;18.770;2023-05-22T11:57:33;71761.00;;;-149.71;29.90
53916;BME280;39827;49.652;18.770;2023-05-22T11:59:59;71765.03;;;-149.71;30.88
53916;BME280;39827;49.652;18.770;2023-05-22T12:02:25;71805.19;;;-149.71;31.17
53916;BME280;39827;49.652;18.770;2023-05-22T12:04:54;71759.00;;;-149.71;31.81
53916;BME280;39827;49.652;18.770;2023-05-22T12:07:20;71757.00;;;-149.71;32.33
53916;BME280;39827;49.652;18.770;2023-05-22T12:09:47;71752.97;;;-149.71;31.58
53916;BME280;39827;49.652;18.770;2023-05-22T12:12:14;71811.22;;;-149.71;33.24
53916;BME280;39827;49.652;18.770;2023-05-22T12:14:43;71841.34;;;-149.71;32.07
53916;BME280;39827;49.652;18.770;2023-05-22T12:17:14;71815.22;;;-149.71;31.96
53916;BME280;39827;49.652;18.770;2023-05-22T12:19:40;71851.38;;;-149.71;31.19
53916;BME280;39827;49.652;18.770;2023-05-22T12:22:07;71841.34;;;-149.71;33.15
53916;BME280;39827;49.652;18.770;2023-05-22T12:24:40;71885.50;;;-149.71;33.13
53916;BME280;39827;49.652;18.770;2023-05-22T12:27:09;71875.47;;;-149.71;33.08
53916;BME280;39827;49.652;18.770;2023-05-22T12:29:36;71847.34;;;-149.71;31.94
53916;BME280;39827;49.652;18.770;2023-05-22T12:32:02;71879.47;;;-149.71;32.47
53916;BME280;39827;49.652;18.770;2023-05-22T12:34:32;71861.41;;;-149.71;32.92
53916;BME280;39827;49.652;18.770;2023-05-22T12:36:58;71891.53;;;-149.71;32.80
53916;BME280;39827;49.652;18.770;2023-05-22T12:39:24;71887.50;;;-149.71;31.18
53916;BME280;39827;49.652;18.770;2023-05-22T12:41:49;71943.75;;;-149.71;31.68
53916;BME280;39827;49.652;18.770;2023-05-22T12:44:15;71925.66;;;-149.71;34.23
53916;BME280;39827;49.652;18.770;2023-05-22T12:46:41;71937.72;;;-149.71;32.58
53916;BME280;39827;49.652;18.770;2023-05-22T12:49:07;71913.63;;;-149.71;32.47
53916;BME280;39827;49.652;18.770;2023-05-22T12:51:32;71915.63;;;-149.71;34.13
53916;BME280;39827;49.652;18.770;2023-05-22T12:53:59;71955.78;;;-149.71;33.30
53916;BME280;39827;49.652;18.770;2023-05-22T12:56:25;71989.91;;;-149.71;32.17
53916;BME280;39827;49.652;18.770;2023-05-22T12:58:51;71993.94;;;-149.71;33.31
53916;BME280;39827;49.652;18.770;2023-05-22T13:01:16;72058.19;;;-149.71;34.09
53916;BME280;39827;49.652;18.770;2023-05-22T13:03:42;72052.16;;;-149.71;34.54
53916;BME280;39827;49.652;18.770;2023-05-22T13:06:07;72032.09;;;-149.71;34.23
53916;BME280;39827;49.652;18.770;2023-05-22T13:08:33;72016.03;;;-149.71;34.93
53916;BME280;39827;49.652;18.770;2023-05-22T13:10:58;72034.09;;;-149.71;34.74
53916;BME280;39827;49.652;18.770;2023-05-22T13:13:24;72030.06;;;-149.71;32.80
53916;BME280;39827;49.652;18.770;2023-05-22T13:15:50;72026.06;;;-149.71;34.04
53916;BME280;39827;49.652;18.770;2023-05-22T13:18:15;72018.03;;;-149.71;33.74
53916;BME280;39827;49.652;18.770;2023-05-22T13:20:41;71995.94;;;-149.71;33.74
53916;BME280;39827;49.652;18.770;2023-05-22T13:23:07;71997.94;;;-149.71;33.95
53916;BME280;39827;49.652;18.770;2023-05-22T13:25:33;72020.03;;;-149.71;33.46
53916;BME280;39827;49.652;18.770;2023-05-22T13:27:59;72010.00;;;-149.71;32.46
53916;BME280;39827;49.652;18.770;2023-05-22T13:30:25;71975.88;;;-149.71;33.64
53916;BME280;39827;49.652;18.770;2023-05-22T13:32:51;71999.97;;;-149.71;32.43
53916;BME280;39827;49.652;18.770;2023-05-22T13:35:17;71993.94;;;-149.71;32.91
53916;BME280;39827;49.652;18.770;2023-05-22T13:37:42;72028.06;;;-149.71;32.90
53916;BME280;39827;49.652;18.770;2023-05-22T13:40:08;72034.09;;;-149.71;33.11
53916;BME280;39827;49.652;18.770;2023-05-22T13:42:33;71979.88;;;-149.71;33.89
53916;BME280;39827;49.652;18.770;2023-05-22T13:44:59;72005.97;;;-149.71;33.20
53916;BME280;39827;49.652;18.770;2023-05-22T13:47:24;72014.00;;;-149.71;32.51
53916;BME280;39827;49.652;18.770;2023-05-22T13:49:50;72005.97;;;-149.71;33.32
53916;BME280;39827;49.652;18.770;2023-05-22T13:52:15;71965.81;;;-149.71;33.88
53916;BME280;39827;49.652;18.770;2023-05-22T13:54:41;71993.94;;;-149.71;34.68
53916;BME280;39827;49.652;18.770;2023-05-22T13:57:06;72048.16;;;-149.71;34.13
53916;BME280;39827;49.652;18.770;2023-05-22T13:59:32;72005.97;;;-149.71;34.51
53916;BME280;39827;49.652;18.770;2023-05-22T14:01:57;72026.06;;;-149.71;33.89
53916;BME280;39827;49.652;18.770;2023-05-22T14:04:23;72018.03;;;-149.71;33.89
53916;BME280;39827;49.652;18.770;2023-05-22T14:06:49;72018.03;;;-149.71;35.22
53916;BME280;39827;49.652;18.770;2023-05-22T14:09:14;72048.16;;;-149.71;32.83
53916;BME280;39827;49.652;18.770;2023-05-22T14:11:40;72040.13;;;-149.71;33.49
53916;BME280;39827;49.652;18.770;2023-05-22T14:14:05;72038.13;;;-149.71;35.47
53916;BME280;39827;49.652;18.770;2023-05-22T14:16:31;72088.31;;;-149.71;35.59
53916;BME280;39827;49.652;18.770;2023-05-22T14:18:58;72088.31;;;-149.71;34.24
53916;BME280;39827;49.652;18.770;2023-05-22T14:21:24;72112.41;;;-149.71;34.36
53916;BME280;39827;49.652;18.770;2023-05-22T14:23:49;72102.38;;;-149.71;35.37
53916;BME280;39827;49.652;18.770;2023-05-22T14:26:15;72108.41;;;-149.71;34.60
53916;BME280;39827;49.652;18.770;2023-05-22T14:28:40;72118.44;;;-149.71;34.38
53916;BME280;39827;49.652;18.770;2023-05-22T14:31:05;72106.38;;;-149.71;35.17
53916;BME280;39827;49.652;18.770;2023-05-22T14:33:31;72098.34;;;-149.71;34.77
53916;BME280;39827;49.652;18.770;2023-05-22T14:35:56;72110.41;;;-149.71;34.86
53916;BME280;39827;49.652;18.770;2023-05-22T14:38:22;72098.34;;;-149.71;35.99
53916;BME280;39827;49.652;18.770;2023-05-22T14:40:47;72076.25;;;-149.71;34.71
53916;BME280;39827;49.652;18.770;2023-05-22T14:43:12;72082.28;;;-149.71;34.58
53916;BME280;39827;49.652;18.770;2023-05-22T14:45:38;72078.28;;;-149.71;33.40
53916;BME280;39827;49.652;18.770;2023-05-22T14:48:03;72088.31;;;-149.71;33.46
53916;BME280;39827;49.652;18.770;2023-05-22T14:50:29;72084.28;;;-149.71;34.04
53916;BME280;39827;49.652;18.770;2023-05-22T14:52:54;72082.28;;;-149.71;35.23
53916;BME280;39827;49.652;18.770;2023-05-22T14:55:20;72080.28;;;-149.71;33.88
53916;BME280;39827;49.652;18.770;2023-05-22T14:57:45;72106.38;;;-149.71;33.60
53916;BME280;39827;49.652;18.770;2023-05-22T15:00:12;72102.38;;;-149.71;35.37
53916;BME280;39827;49.652;18.770;2023-05-22T15:02:38;72106.38;;;-149.71;34.06
53916;BME280;39827;49.652;18.770;2023-05-22T15:05:04;72134.50;;;-149.71;34.05
53916;BME280;39827;49.652;18.770;2023-05-22T15:07:31;72130.47;;;-149.71;34.15
53916;BME280;39827;49.652;18.770;2023-05-22T15:09:56;72156.59;;;-149.71;34.82
53916;BME280;39827;49.652;18.770;2023-05-22T15:12:22;72168.63;;;-149.71;35.34
53916;BME280;39827;49.652;18.770;2023-05-22T15:14:47;72164.63;;;-149.71;34.88
53916;BME280;39827;49.652;18.770;2023-05-22T15:17:13;72164.63;;;-149.71;35.65
53916;BME280;39827;49.652;18.770;2023-05-22T15:19:38;72176.66;;;-149.71;35.54
53916;BME280;39827;49.652;18.770;2023-05-22T15:22:08;72182.69;;;-149.71;35.42
53916;BME280;39827;49.652;18.770;2023-05-22T15:24:33;72184.69;;;-149.71;35.28
53916;BME280;39827;49.652;18.770;2023-05-22T15:26:59;72182.69;;;-149.71;35.72
53916;BME280;39827;49.652;18.770;2023-05-22T15:29:24;72202.78;;;-149.71;34.91
53916;BME280;39827;49.652;18.770;2023-05-22T15:31:49;72234.91;;;-149.71;35.56
53916;BME280;39827;49.652;18.770;2023-05-22T15:34:15;72261.00;;;-149.71;34.72
53916;BME280;39827;49.652;18.770;2023-05-22T15:36:40;72263.00;;;-149.71;35.84
53916;BME280;39827;49.652;18.770;2023-05-22T15:39:06;72283.09;;;-149.71;36.87
53916;BME280;39827;49.652;18.770;2023-05-22T15:41:31;72309.19;;;-149.71;36.41
53916;BME280;39827;49.652;18.770;2023-05-22T15:43:57;72327.28;;;-149.71;36.52
53916;BME280;39827;49.652;18.770;2023-05-22T15:46:22;72331.28;;;-149.71;36.07
53916;BME280;39827;49.652;18.770;2023-05-22T15:48:47;72325.28;;;-149.71;36.52
53916;BME280;39827;49.652;18.770;2023-05-22T15:51:13;72327.28;;;-149.71;36.11
53916;BME280;39827;49.652;18.770;2023-05-22T15:53:38;72305.19;;;-149.71;35.49
53916;BME280;39827;49.652;18.770;2023-05-22T15:56:05;72287.13;;;-149.71;35.78
53916;BME280;39827;49.652;18.770;2023-05-22T15:58:30;72275.06;;;-149.71;36.29
53916;BME280;39827;49.652;18.770;2023-05-22T16:00:56;72283.09;;;-149.71;35.76
53916;BME280;39827;49.652;18.770;2023-05-22T16:03:22;72275.06;;;-149.71;35.21
53916;BME280;39827;49.652;18.770;2023-05-22T16:05:47;72303.19;;;-149.71;35.26
53916;BME280;39827;49.652;18.770;2023-05-22T16:08:14;72275.06;;;-149.71;35.12
53916;BME280;39827;49.652;18.770;2023-05-22T16:10:43;72283.09;;;-149.71;34.73
53916;BME280;39827;49.652;18.770;2023-05-22T16:13:12;72295.16;;;-149.71;36.49
53916;BME280;39827;49.652;18.770;2023-05-22T16:15:38;72341.34;;;-149.71;36.40
53916;BME280;39827;49.652;18.770;2023-05-22T16:18:05;72367.44;;;-149.71;37.24
53916;BME280;39827;49.652;18.770;2023-05-22T16:20:31;72391.53;;;-149.71;38.71
53916;BME280;39827;49.652;18.770;2023-05-22T16:22:56;72407.59;;;-149.71;39.56
53916;BME280;39827;49.652;18.770;2023-05-22T16:25:22;72423.66;;;-149.71;40.52
53916;BME280;39827;49.652;18.770;2023-05-22T16:27:47;72437.72;;;-149.71;39.09
53916;BME280;39827;49.652;18.770;2023-05-22T16:30:14;72447.78;;;-149.71;40.44
53916;BME280;39827;49.652;18.770;2023-05-22T16:32:41;72475.88;;;-149.71;38.96
53916;BME280;39827;49.652;18.770;2023-05-22T16:35:07;72467.84;;;-149.71;40.45
53916;BME280;39827;49.652;18.770;2023-05-22T16:37:32;72493.97;;;-149.71;42.76
53916;BME280;39827;49.652;18.770;2023-05-22T16:39:58;72520.06;;;-149.71;40.98
53916;BME280;39827;49.652;18.770;2023-05-22T16:42:23;72546.16;;;-149.71;39.71
53916;BME280;39827;49.652;18.770;2023-05-22T16:44:49;72536.13;;;-149.71;41.80
53916;BME280;39827;49.652;18.770;2023-05-22T16:47:15;72556.22;;;-149.71;41.62
53916;BME280;39827;49.652;18.770;2023-05-22T16:49:40;72578.31;;;-149.71;40.63
53916;BME280;39827;49.652;18.770;2023-05-22T16:52:06;72592.38;;;-149.71;41.97
53916;BME280;39827;49.652;18.770;2023-05-22T16:54:31;72622.50;;;-149.71;43.36
53916;BME280;39827;49.652;18.770;2023-05-22T16:56:57;72616.47;;;-149.71;43.19
53916;BME280;39827;49.652;18.770;2023-05-22T16:59:22;72646.59;;;-149.71;43.14
53916;BME280;39827;49.652;18.770;2023-05-22T17:01:48;72668.69;;;-149.71;46.40
53916;BME280;39827;49.652;18.770;2023-05-22T17:04:13;72692.78;;;-149.71;46.42
53916;BME280;39827;49.652;18.770;2023-05-22T17:06:40;72696.78;;;-149.71;49.39
53916;BME280;39827;49.652;18.770;2023-05-22T17:09:07;72696.78;;;-149.71;47.68
53916;BME280;39827;49.652;18.770;2023-05-22T17:11:34;72720.91;;;-149.71;45.48
53916;BME280;39827;49.652;18.770;2023-05-22T17:14:00;72722.91;;;-149.71;43.02
53916;BME280;39827;49.652;18.770;2023-05-22T17:16:25;72724.91;;;-149.71;44.29
53916;BME280;39827;49.652;18.770;2023-05-22T17:18:50;72740.97;;;-149.71;50.35
53916;BME280;39827;49.652;18.770;2023-05-22T17:21:16;72767.09;;;-149.71;51.75
53916;BME280;39827;49.652;18.770;2023-05-22T17:23:42;72801.22;;;-149.71;49.38
53916;BME280;39827;49.652;18.770;2023-05-22T17:26:07;72809.25;;;-149.71;50.09
53916;BME280;39827;49.652;18.770;2023-05-22T17:28:33;72829.34;;;-149.71;52.04
53916;BME280;39827;49.652;18.770;2023-05-22T17:30:58;72865.50;;;-149.71;52.90
53916;BME280;39827;49.652;18.770;2023-05-22T17:33:24;72871.53;;;-149.71;54.85
53916;BME280;39827;49.652;18.770;2023-05-22T17:35:50;72889.59;;;-149.71;55.24
53916;BME280;39827;49.652;18.770;2023-05-22T17:38:16;72917.72;;;-149.71;54.93
53916;BME280;39827;49.652;18.770;2023-05-22T17:40:41;72929.78;;;-149.71;53.37
53916;BME280;39827;49.652;18.770;2023-05-22T17:43:07;72917.72;;;-149.71;52.69
53916;BME280;39827;49.652;18.770;2023-05-22T17:45:32;72911.69;;;-149.71;54.67
53916;BME280;39827;49.652;18.770;2023-05-22T17:47:57;72909.69;;;-149.71;56.32
53916;BME280;39827;49.652;18.770;2023-05-22T17:50:23;72931.78;;;-149.71;56.93
53916;BME280;39827;49.652;18.770;2023-05-22T17:52:48;72955.88;;;-149.71;56.24
53916;BME280;39827;49.652;18.770;2023-05-22T17:55:14;72957.88;;;-149.71;57.30
53916;BME280;39827;49.652;18.770;2023-05-22T17:57:39;72973.97;;;-149.71;59.28
53916;BME280;39827;49.652;18.770;2023-05-22T18:00:05;73014.13;;;-149.71;60.55
53916;BME280;39827;49.652;18.770;2023-05-22T18:02:34;73022.16;;;-149.71;61.10
53916;BME280;39827;49.652;18.770;2023-05-22T18:05:01;73022.16;;;-149.71;61.91
53916;BME280;39827;49.652;18.770;2023-05-22T18:07:27;73042.25;;;-149.71;61.43
53916;BME280;39827;49.652;18.770;2023-05-22T18:09:52;73082.41;;;-149.71;61.26
53916;BME280;39827;49.652;18.770;2023-05-22T18:12:18;73120.59;;;-149.71;61.35
53916;BME280;39827;49.652;18.770;2023-05-22T18:14:43;73124.59;;;-149.71;61.76
53916;BME280;39827;49.652;18.770;2023-05-22T18:17:09;73116.56;;;-149.71;61.88
53916;BME280;39827;49.652;18.770;2023-05-22T18:19:34;73154.72;;;-149.71;63.17
53916;BME280;39827;49.652;18.770;2023-05-22T18:21:59;73166.78;;;-149.71;63.58
53916;BME280;39827;49.652;18.770;2023-05-22T18:24:27;73231.06;;;-149.71;65.83
53916;BME280;39827;49.652;18.770;2023-05-22T18:26:53;73221.00;;;-149.71;67.00
53916;BME280;39827;49.652;18.770;2023-05-22T18:29:20;73279.25;;;-149.71;67.37
53916;BME280;39827;49.652;18.770;2023-05-22T18:31:46;73303.38;;;-149.71;64.60
53916;BME280;39827;49.652;18.770;2023-05-22T18:34:11;73279.25;;;-149.71;66.00
53916;BME280;39827;49.652;18.770;2023-05-22T18:36:38;73293.31;;;-149.71;66.67
53916;BME280;39827;49.652;18.770;2023-05-22T18:39:04;73291.31;;;-149.71;67.07
53916;BME280;39827;49.652;18.770;2023-05-22T18:41:31;73321.44;;;-149.71;67.91
53916;BME280;39827;49.652;18.770;2023-05-22T18:43:57;73331.50;;;-149.71;67.61
53916;BME280;39827;49.652;18.770;2023-05-22T18:46:23;73335.50;;;-149.71;67.80
53916;BME280;39827;49.652;18.770;2023-05-22T18:48:49;73343.53;;;-149.71;68.28
53916;BME280;39827;49.652;18.770;2023-05-22T18:51:14;73381.69;;;-149.71;70.19
53916;BME280;39827;49.652;18.770;2023-05-22T18:53:41;73365.63;;;-149.71;69.70
53916;BME280;39827;49.652;18.770;2023-05-22T18:56:06;73383.72;;;-149.71;68.68
53916;BME280;39827;49.652;18.770;2023-05-22T18:58:32;73387.72;;;-149.71;68.16
53916;BME280;39827;49.652;18.770;2023-05-22T19:00:57;73387.72;;;-149.71;68.59
53916;BME280;39827;49.652;18.770;2023-05-22T19:03:23;73399.78;;;-149.71;69.41
53916;BME280;39827;49.652;18.770;2023-05-22T19:05:49;73425.91;;;-149.71;70.68
53916;BME280;39827;49.652;18.770;2023-05-22T19:08:14;73435.94;;;-149.71;70.95
53916;BME280;39827;49.652;18.770;2023-05-22T19:10:40;73443.97;;;-149.71;70.05
53916;BME280;39827;49.652;18.770;2023-05-22T19:13:06;73452.00;;;-149.71;69.41
53916;BME280;39827;49.652;18.770;2023-05-22T19:15:31;73458.03;;;-149.71;68.08
53916;BME280;39827;49.652;18.770;2023-05-22T19:17:59;73468.06;;;-149.71;69.38
53916;BME280;39827;49.652;18.770;2023-05-22T19:20:25;73480.13;;;-149.71;70.39
53916;BME280;39827;49.652;18.770;2023-05-22T19:22:50;73492.19;;;-149.71;71.90
53916;BME280;39827;49.652;18.770;2023-05-22T19:25:16;73496.19;;;-149.71;72.37
53916;BME280;39827;49.652;18.770;2023-05-22T19:27:42;73524.31;;;-149.71;73.49
53916;BME280;39827;49.652;18.770;2023-05-22T19:30:08;73532.34;;;-149.71;74.26
53916;BME280;39827;49.652;18.770;2023-05-22T19:32:34;73556.47;;;-149.71;74.90
53916;BME280;39827;49.652;18.770;2023-05-22T19:34:59;73554.47;;;-149.71;74.58
53916;BME280;39827;49.652;18.770;2023-05-22T19:37:25;73570.53;;;-149.71;74.71
53916;BME280;39827;49.652;18.770;2023-05-22T19:39:51;73582.56;;;-149.71;74.72
53916;BME280;39827;49.652;18.770;2023-05-22T19:42:16;73584.59;;;-149.71;74.49
53916;BME280;39827;49.652;18.770;2023-05-22T19:44:41;73580.56;;;-149.71;73.61
53916;BME280;39827;49.652;18.770;2023-05-22T19:47:07;73580.56;;;-149.71;74.09
53916;BME280;39827;49.652;18.770;2023-05-22T19:49:32;73604.69;;;-149.71;75.62
53916;BME280;39827;49.652;18.770;2023-05-22T19:52:02;73598.66;;;-149.71;75.91
53916;BME280;39827;49.652;18.770;2023-05-22T19:54:28;73626.78;;;-149.71;76.67
53916;BME280;39827;49.652;18.770;2023-05-22T19:56:53;73624.75;;;-149.71;76.29
53916;BME280;39827;49.652;18.770;2023-05-22T19:59:19;73620.75;;;-149.71;75.80
53916;BME280;39827;49.652;18.770;2023-05-22T20:01:44;73614.72;;;-149.71;75.46
53916;BME280;39827;49.652;18.770;2023-05-22T20:04:11;73644.84;;;-149.71;76.26
53916;BME280;39827;49.652;18.770;2023-05-22T20:06:37;73632.78;;;-149.71;75.49
53916;BME280;39827;49.652;18.770;2023-05-22T20:09:03;73628.78;;;-149.71;74.98
53916;BME280;39827;49.652;18.770;2023-05-22T20:11:30;73644.84;;;-149.71;75.91
53916;BME280;39827;49.652;18.770;2023-05-22T20:13:55;73646.84;;;-149.71;76.57
53916;BME280;39827;49.652;18.770;2023-05-22T20:16:21;73646.84;;;-149.71;76.71
53916;BME280;39827;49.652;18.770;2023-05-22T20:18:46;73662.94;;;-149.71;77.25
53916;BME280;39827;49.652;18.770;2023-05-22T20:21:13;73674.97;;;-149.71;77.73
53916;BME280;39827;49.652;18.770;2023-05-22T20:23:38;73683.03;;;-149.71;77.32
53916;BME280;39827;49.652;18.770;2023-05-22T20:26:04;73674.97;;;-149.71;76.47
53916;BME280;39827;49.652;18.770;2023-05-22T20:28:30;73687.03;;;-149.71;77.17
53916;BME280;39827;49.652;18.770;2023-05-22T20:30:55;73674.97;;;-149.71;76.92
53916;BME280;39827;49.652;18.770;2023-05-22T20:33:21;73689.03;;;-149.71;77.23
53916;BME280;39827;49.652;18.770;2023-05-22T20:35:47;73695.06;;;-149.71;77.10
53916;BME280;39827;49.652;18.770;2023-05-22T20:38:12;73693.06;;;-149.71;76.90
53916;BME280;39827;49.652;18.770;2023-05-22T20:40:38;73705.13;;;-149.71;76.96
53916;BME280;39827;49.652;18.770;2023-05-22T20:43:06;73701.09;;;-149.71;76.45
53916;BME280;39827;49.652;18.770;2023-05-22T20:45:33;73701.09;;;-149.71;76.32
53916;BME280;39827;49.652;18.770;2023-05-22T20:47:58;73701.09;;;-149.71;76.60
53916;BME280;39827;49.652;18.770;2023-05-22T20:50:24;73701.09;;;-149.71;77.01
53916;BME280;39827;49.652;18.770;2023-05-22T20:52:49;73693.06;;;-149.71;76.12
53916;BME280;39827;49.652;18.770;2023-05-22T20:55:15;73679.00;;;-149.71;75.41
53916;BME280;39827;49.652;18.770;2023-05-22T20:57:40;73672.97;;;-149.71;75.18